sensor_id;sensor_type;location;lat;lon;timestamp;P1;durP1;ratioP1;P2;durP2;ratioP2
3343;SDS011;1685;53.104;8.228;2023-03-31T00:00:26;19.07;;;3.97;;
3343;SDS011;1685;53.104;8.228;2023-03-31T00:02:53;19.03;;;4.20;;
3343;SDS011;1685;53.104;8.228;2023-03-31T00:05:20;9.90;;;3.33;;
3343;SDS011;1685;53.104;8.228;2023-03-31T00:07:51;16.70;;;3.33;;
3343;SDS011;1685;53.104;8.228;2023-03-31T00:10:19;8.30;;;3.83;;
3343;SDS011;1685;53.104;8.228;2023-03-31T00:12:46;16.27;;;4.00;;
3343;SDS011;1685;53.104;8.228;2023-03-31T00:15:14;20.17;;;3.87;;
3343;SDS011;1685;53.104;8.228;2023-03-31T00:17:41;13.93;;;3.43;;
3343;SDS011;1685;53.104;8.228;2023-03-31T00:20:08;16.73;;;3.73;;
3343;SDS011;1685;53.104;8.228;2023-03-31T00:22:36;14.73;;;3.97;;
3343;SDS011;1685;53.104;8.228;2023-03-31T00:25:06;10.63;;;3.10;;
3343;SDS011;1685;53.104;8.228;2023-03-31T00:27:34;13.63;;;3.43;;
3343;SDS011;1685;53.104;8.228;2023-03-31T00:30:01;13.63;;;3.60;;
3343;SDS011;1685;53.104;8.228;2023-03-31T00:32:30;13.20;;;3.50;;
3343;SDS011;1685;53.104;8.228;2023-03-31T00:34:58;22.87;;;4.20;;
3343;SDS011;1685;53.104;8.228;2023-03-31T00:37:27;20.50;;;3.87;;
3343;SDS011;1685;53.104;8.228;2023-03-31T00:39:54;22.77;;;5.47;;
3343;SDS011;1685;53.104;8.228;2023-03-31T00:42:22;8.30;;;3.13;;
3343;SDS011;1685;53.104;8.228;2023-03-31T00:47:53;14.50;;;4.53;;
3343;SDS011;1685;53.104;8.228;2023-03-31T00:50:24;15.37;;;3.83;;
3343;SDS011;1685;53.104;8.228;2023-03-31T00:52:54;17.77;;;3.67;;
3343;SDS011;1685;53.104;8.228;2023-03-31T00:55:24;14.33;;;2.97;;
3343;SDS011;1685;53.104;8.228;2023-03-31T00:57:56;10.50;;;3.00;;
3343;SDS011;1685;53.104;8.228;2023-03-31T01:00:26;16.80;;;3.57;;
3343;SDS011;1685;53.104;8.228;2023-03-31T01:02:56;19.47;;;3.87;;
3343;SDS011;1685;53.104;8.228;2023-03-31T01:05:28;15.40;;;3.20;;
3343;SDS011;1685;53.104;8.228;2023-03-31T01:07:58;13.30;;;2.87;;
3343;SDS011;1685;53.104;8.228;2023-03-31T01:10:26;14.80;;;3.60;;
3343;SDS011;1685;53.104;8.228;2023-03-31T01:12:53;22.40;;;4.50;;
3343;SDS011;1685;53.104;8.228;2023-03-31T01:15:22;15.73;;;3.30;;
3343;SDS011;1685;53.104;8.228;2023-03-31T01:17:49;15.27;;;3.40;;
3343;SDS011;1685;53.104;8.228;2023-03-31T01:20:23;11.70;;;2.73;;
3343;SDS011;1685;53.104;8.228;2023-03-31T01:26:07;14.23;;;3.57;;
3343;SDS011;1685;53.104;8.228;2023-03-31T01:28:54;11.20;;;2.80;;
3343;SDS011;1685;53.104;8.228;2023-03-31T01:31:34;8.77;;;3.80;;
3343;SDS011;1685;53.104;8.228;2023-03-31T01:37:49;15.00;;;3.47;;
3343;SDS011;1685;53.104;8.228;2023-03-31T01:40:33;25.33;;;3.20;;
3343;SDS011;1685;53.104;8.228;2023-03-31T01:43:10;18.33;;;3.50;;
3343;SDS011;1685;53.104;8.228;2023-03-31T01:45:46;8.23;;;2.80;;
3343;SDS011;1685;53.104;8.228;2023-03-31T01:48:25;21.07;;;4.00;;
3343;SDS011;1685;53.104;8.228;2023-03-31T01:51:09;14.83;;;4.23;;
3343;SDS011;1685;53.104;8.228;2023-03-31T01:53:42;24.80;;;4.83;;
3343;SDS011;1685;53.104;8.228;2023-03-31T01:56:16;7.37;;;3.50;;
3343;SDS011;1685;53.104;8.228;2023-03-31T01:58:48;15.20;;;4.40;;
3343;SDS011;1685;53.104;8.228;2023-03-31T02:01:20;15.03;;;5.27;;
3343;SDS011;1685;53.104;8.228;2023-03-31T02:03:52;20.30;;;4.40;;
3343;SDS011;1685;53.104;8.228;2023-03-31T02:06:22;12.60;;;3.70;;
3343;SDS011;1685;53.104;8.228;2023-03-31T02:08:53;9.17;;;3.20;;
3343;SDS011;1685;53.104;8.228;2023-03-31T02:11:24;10.70;;;4.00;;
3343;SDS011;1685;53.104;8.228;2023-03-31T02:13:56;12.37;;;3.50;;
3343;SDS011;1685;53.104;8.228;2023-03-31T02:16:27;10.00;;;3.77;;
3343;SDS011;1685;53.104;8.228;2023-03-31T02:18:58;15.33;;;4.67;;
3343;SDS011;1685;53.104;8.228;2023-03-31T02:21:30;11.43;;;4.23;;
3343;SDS011;1685;53.104;8.228;2023-03-31T02:23:59;10.07;;;4.17;;
3343;SDS011;1685;53.104;8.228;2023-03-31T02:26:33;16.27;;;5.20;;
3343;SDS011;1685;53.104;8.228;2023-03-31T02:29:04;17.70;;;4.50;;
3343;SDS011;1685;53.104;8.228;2023-03-31T02:31:33;15.30;;;4.47;;
3343;SDS011;1685;53.104;8.228;2023-03-31T02:34:07;13.30;;;4.67;;
3343;SDS011;1685;53.104;8.228;2023-03-31T02:36:34;12.63;;;4.30;;
3343;SDS011;1685;53.104;8.228;2023-03-31T02:39:02;13.87;;;4.23;;
3343;SDS011;1685;53.104;8.228;2023-03-31T02:41:34;14.80;;;3.80;;
3343;SDS011;1685;53.104;8.228;2023-03-31T02:44:02;8.77;;;3.93;;
3343;SDS011;1685;53.104;8.228;2023-03-31T02:46:29;11.47;;;4.43;;
3343;SDS011;1685;53.104;8.228;2023-03-31T02:48:58;18.90;;;4.90;;
3343;SDS011;1685;53.104;8.228;2023-03-31T02:51:34;14.77;;;4.87;;
3343;SDS011;1685;53.104;8.228;2023-03-31T02:54:21;27.67;;;4.70;;
3343;SDS011;1685;53.104;8.228;2023-03-31T02:57:18;12.53;;;4.20;;
3343;SDS011;1685;53.104;8.228;2023-03-31T03:00:00;18.27;;;5.10;;
3343;SDS011;1685;53.104;8.228;2023-03-31T03:02:36;15.53;;;3.97;;
3343;SDS011;1685;53.104;8.228;2023-03-31T03:05:20;16.27;;;3.97;;
3343;SDS011;1685;53.104;8.228;2023-03-31T03:07:54;17.93;;;3.80;;
3343;SDS011;1685;53.104;8.228;2023-03-31T03:10:29;7.90;;;3.90;;
3343;SDS011;1685;53.104;8.228;2023-03-31T03:13:05;19.33;;;4.93;;
3343;SDS011;1685;53.104;8.228;2023-03-31T03:15:41;16.83;;;3.90;;
3343;SDS011;1685;53.104;8.228;2023-03-31T03:18:12;12.03;;;4.60;;
3343;SDS011;1685;53.104;8.228;2023-03-31T03:20:41;11.50;;;4.27;;
3343;SDS011;1685;53.104;8.228;2023-03-31T03:23:12;15.73;;;3.30;;
3343;SDS011;1685;53.104;8.228;2023-03-31T03:25:40;16.23;;;3.57;;
3343;SDS011;1685;53.104;8.228;2023-03-31T03:28:09;15.50;;;3.30;;
3343;SDS011;1685;53.104;8.228;2023-03-31T03:30:36;8.93;;;3.00;;
3343;SDS011;1685;53.104;8.228;2023-03-31T03:33:03;18.37;;;3.20;;
3343;SDS011;1685;53.104;8.228;2023-03-31T03:35:31;13.73;;;3.67;;
3343;SDS011;1685;53.104;8.228;2023-03-31T03:37:58;15.97;;;3.90;;
3343;SDS011;1685;53.104;8.228;2023-03-31T03:40:25;11.63;;;3.20;;
3343;SDS011;1685;53.104;8.228;2023-03-31T03:42:52;10.63;;;3.43;;
3343;SDS011;1685;53.104;8.228;2023-03-31T03:45:20;12.00;;;3.23;;
3343;SDS011;1685;53.104;8.228;2023-03-31T03:47:47;4.73;;;2.93;;
3343;SDS011;1685;53.104;8.228;2023-03-31T03:50:14;8.73;;;3.07;;
3343;SDS011;1685;53.104;8.228;2023-03-31T03:52:41;15.87;;;4.30;;
3343;SDS011;1685;53.104;8.228;2023-03-31T03:55:08;16.03;;;3.20;;
3343;SDS011;1685;53.104;8.228;2023-03-31T03:57:36;12.50;;;3.30;;
3343;SDS011;1685;53.104;8.228;2023-03-31T04:00:03;12.57;;;3.13;;
3343;SDS011;1685;53.104;8.228;2023-03-31T04:02:35;11.63;;;3.57;;
3343;SDS011;1685;53.104;8.228;2023-03-31T04:05:02;13.23;;;3.53;;
3343;SDS011;1685;53.104;8.228;2023-03-31T04:07:29;9.13;;;3.37;;
3343;SDS011;1685;53.104;8.228;2023-03-31T04:09:56;17.30;;;4.60;;
3343;SDS011;1685;53.104;8.228;2023-03-31T04:12:23;8.40;;;3.00;;
3343;SDS011;1685;53.104;8.228;2023-03-31T04:14:50;17.33;;;3.33;;
3343;SDS011;1685;53.104;8.228;2023-03-31T04:17:17;6.53;;;3.20;;
3343;SDS011;1685;53.104;8.228;2023-03-31T04:19:57;8.80;;;3.17;;
3343;SDS011;1685;53.104;8.228;2023-03-31T04:22:26;6.80;;;2.83;;
3343;SDS011;1685;53.104;8.228;2023-03-31T04:24:53;11.23;;;3.50;;
3343;SDS011;1685;53.104;8.228;2023-03-31T04:27:22;15.67;;;4.07;;
3343;SDS011;1685;53.104;8.228;2023-03-31T04:29:51;11.03;;;3.50;;
3343;SDS011;1685;53.104;8.228;2023-03-31T04:32:18;10.87;;;3.70;;
3343;SDS011;1685;53.104;8.228;2023-03-31T04:34:46;6.97;;;3.10;;
3343;SDS011;1685;53.104;8.228;2023-03-31T04:37:16;9.40;;;3.40;;
3343;SDS011;1685;53.104;8.228;2023-03-31T04:39:42;15.60;;;3.30;;
3343;SDS011;1685;53.104;8.228;2023-03-31T04:42:10;11.87;;;3.40;;
3343;SDS011;1685;53.104;8.228;2023-03-31T04:44:38;14.33;;;4.03;;
3343;SDS011;1685;53.104;8.228;2023-03-31T04:47:05;9.47;;;3.33;;
3343;SDS011;1685;53.104;8.228;2023-03-31T04:49:32;9.30;;;3.30;;
3343;SDS011;1685;53.104;8.228;2023-03-31T04:52:00;10.40;;;3.60;;
3343;SDS011;1685;53.104;8.228;2023-03-31T04:54:29;7.57;;;3.07;;
3343;SDS011;1685;53.104;8.228;2023-03-31T04:56:56;19.43;;;3.20;;
3343;SDS011;1685;53.104;8.228;2023-03-31T04:59:23;8.03;;;3.10;;
3343;SDS011;1685;53.104;8.228;2023-03-31T05:01:50;11.73;;;3.20;;
3343;SDS011;1685;53.104;8.228;2023-03-31T05:04:17;8.83;;;3.10;;
3343;SDS011;1685;53.104;8.228;2023-03-31T05:06:44;5.10;;;3.23;;
3343;SDS011;1685;53.104;8.228;2023-03-31T05:09:11;14.80;;;3.20;;
3343;SDS011;1685;53.104;8.228;2023-03-31T05:11:39;9.23;;;3.40;;
3343;SDS011;1685;53.104;8.228;2023-03-31T05:14:06;11.73;;;3.27;;
3343;SDS011;1685;53.104;8.228;2023-03-31T05:16:33;9.20;;;3.37;;
3343;SDS011;1685;53.104;8.228;2023-03-31T05:19:00;8.10;;;2.80;;
3343;SDS011;1685;53.104;8.228;2023-03-31T05:21:27;5.70;;;3.10;;
3343;SDS011;1685;53.104;8.228;2023-03-31T05:23:55;10.53;;;4.20;;
3343;SDS011;1685;53.104;8.228;2023-03-31T05:26:22;5.27;;;3.07;;
3343;SDS011;1685;53.104;8.228;2023-03-31T05:28:51;9.03;;;3.83;;
3343;SDS011;1685;53.104;8.228;2023-03-31T05:31:18;10.33;;;3.80;;
3343;SDS011;1685;53.104;8.228;2023-03-31T05:33:45;12.17;;;3.40;;
3343;SDS011;1685;53.104;8.228;2023-03-31T05:36:13;11.10;;;4.13;;
3343;SDS011;1685;53.104;8.228;2023-03-31T05:38:41;8.13;;;4.13;;
3343;SDS011;1685;53.104;8.228;2023-03-31T05:41:09;10.43;;;4.00;;
3343;SDS011;1685;53.104;8.228;2023-03-31T05:43:36;14.27;;;5.17;;
3343;SDS011;1685;53.104;8.228;2023-03-31T05:46:05;13.20;;;6.07;;
3343;SDS011;1685;53.104;8.228;2023-03-31T05:48:32;10.67;;;5.50;;
3343;SDS011;1685;53.104;8.228;2023-03-31T05:50:59;12.47;;;6.40;;
3343;SDS011;1685;53.104;8.228;2023-03-31T05:53:27;12.03;;;6.97;;
3343;SDS011;1685;53.104;8.228;2023-03-31T05:55:57;18.47;;;8.57;;
3343;SDS011;1685;53.104;8.228;2023-03-31T05:58:24;20.60;;;9.00;;
3343;SDS011;1685;53.104;8.228;2023-03-31T06:00:59;23.20;;;9.70;;
3343;SDS011;1685;53.104;8.228;2023-03-31T06:03:28;21.10;;;10.23;;
3343;SDS011;1685;53.104;8.228;2023-03-31T06:05:54;24.90;;;10.43;;
3343;SDS011;1685;53.104;8.228;2023-03-31T06:08:22;19.97;;;11.73;;
3343;SDS011;1685;53.104;8.228;2023-03-31T06:10:50;21.83;;;12.00;;
3343;SDS011;1685;53.104;8.228;2023-03-31T06:13:17;20.73;;;11.57;;
3343;SDS011;1685;53.104;8.228;2023-03-31T06:15:51;15.87;;;12.60;;
3343;SDS011;1685;53.104;8.228;2023-03-31T06:18:18;25.50;;;13.03;;
3343;SDS011;1685;53.104;8.228;2023-03-31T06:20:46;19.03;;;13.87;;
3343;SDS011;1685;53.104;8.228;2023-03-31T06:23:13;20.07;;;12.83;;
3343;SDS011;1685;53.104;8.228;2023-03-31T06:25:40;26.83;;;15.87;;
3343;SDS011;1685;53.104;8.228;2023-03-31T06:28:08;22.30;;;14.30;;
3343;SDS011;1685;53.104;8.228;2023-03-31T06:30:35;20.33;;;14.63;;
3343;SDS011;1685;53.104;8.228;2023-03-31T06:33:01;25.50;;;15.30;;
3343;SDS011;1685;53.104;8.228;2023-03-31T06:35:28;20.10;;;13.90;;
3343;SDS011;1685;53.104;8.228;2023-03-31T06:37:57;18.10;;;14.73;;
3343;SDS011;1685;53.104;8.228;2023-03-31T06:40:24;22.47;;;13.83;;
3343;SDS011;1685;53.104;8.228;2023-03-31T06:42:51;18.13;;;14.90;;
3343;SDS011;1685;53.104;8.228;2023-03-31T06:45:18;19.87;;;14.57;;
3343;SDS011;1685;53.104;8.228;2023-03-31T06:47:45;26.03;;;14.83;;
3343;SDS011;1685;53.104;8.228;2023-03-31T06:50:12;18.10;;;14.00;;
3343;SDS011;1685;53.104;8.228;2023-03-31T06:52:39;20.13;;;14.47;;
3343;SDS011;1685;53.104;8.228;2023-03-31T06:55:08;23.03;;;13.87;;
3343;SDS011;1685;53.104;8.228;2023-03-31T06:57:37;18.83;;;14.60;;
3343;SDS011;1685;53.104;8.228;2023-03-31T07:00:05;22.30;;;15.63;;
3343;SDS011;1685;53.104;8.228;2023-03-31T07:02:33;22.63;;;13.57;;
3343;SDS011;1685;53.104;8.228;2023-03-31T07:05:00;23.73;;;14.43;;
3343;SDS011;1685;53.104;8.228;2023-03-31T07:07:29;18.73;;;13.50;;
3343;SDS011;1685;53.104;8.228;2023-03-31T07:09:56;18.07;;;13.57;;
3343;SDS011;1685;53.104;8.228;2023-03-31T07:12:25;17.17;;;13.10;;
3343;SDS011;1685;53.104;8.228;2023-03-31T07:14:51;19.20;;;13.80;;
3343;SDS011;1685;53.104;8.228;2023-03-31T07:17:18;20.00;;;14.63;;
3343;SDS011;1685;53.104;8.228;2023-03-31T07:19:45;23.27;;;13.33;;
3343;SDS011;1685;53.104;8.228;2023-03-31T07:22:13;20.90;;;14.87;;
3343;SDS011;1685;53.104;8.228;2023-03-31T07:24:39;19.67;;;14.90;;
3343;SDS011;1685;53.104;8.228;2023-03-31T07:27:06;21.60;;;14.60;;
3343;SDS011;1685;53.104;8.228;2023-03-31T07:29:35;20.03;;;13.87;;
3343;SDS011;1685;53.104;8.228;2023-03-31T07:32:02;18.37;;;14.23;;
3343;SDS011;1685;53.104;8.228;2023-03-31T07:34:29;19.23;;;15.53;;
3343;SDS011;1685;53.104;8.228;2023-03-31T07:36:56;25.13;;;15.07;;
3343;SDS011;1685;53.104;8.228;2023-03-31T07:39:23;20.60;;;15.60;;
3343;SDS011;1685;53.104;8.228;2023-03-31T07:41:50;22.17;;;15.60;;
3343;SDS011;1685;53.104;8.228;2023-03-31T07:44:17;25.93;;;14.40;;
3343;SDS011;1685;53.104;8.228;2023-03-31T07:46:47;23.93;;;14.30;;
3343;SDS011;1685;53.104;8.228;2023-03-31T07:49:13;24.17;;;16.40;;
3343;SDS011;1685;53.104;8.228;2023-03-31T07:51:40;21.87;;;14.27;;
3343;SDS011;1685;53.104;8.228;2023-03-31T07:54:08;25.40;;;16.67;;
3343;SDS011;1685;53.104;8.228;2023-03-31T07:56:35;22.67;;;14.57;;
3343;SDS011;1685;53.104;8.228;2023-03-31T07:59:02;18.43;;;14.63;;
3343;SDS011;1685;53.104;8.228;2023-03-31T08:01:29;22.10;;;15.50;;
3343;SDS011;1685;53.104;8.228;2023-03-31T08:03:57;23.17;;;14.80;;
3343;SDS011;1685;53.104;8.228;2023-03-31T08:06:25;20.87;;;15.60;;
3343;SDS011;1685;53.104;8.228;2023-03-31T08:08:53;23.97;;;15.60;;
3343;SDS011;1685;53.104;8.228;2023-03-31T08:11:20;25.03;;;15.10;;
3343;SDS011;1685;53.104;8.228;2023-03-31T08:13:48;22.23;;;16.13;;
3343;SDS011;1685;53.104;8.228;2023-03-31T08:16:15;25.07;;;15.80;;
3343;SDS011;1685;53.104;8.228;2023-03-31T08:18:42;23.63;;;14.10;;
3343;SDS011;1685;53.104;8.228;2023-03-31T08:21:10;22.33;;;14.67;;
3343;SDS011;1685;53.104;8.228;2023-03-31T08:23:37;19.53;;;13.97;;
3343;SDS011;1685;53.104;8.228;2023-03-31T08:26:07;18.93;;;13.83;;
3343;SDS011;1685;53.104;8.228;2023-03-31T08:28:35;29.93;;;16.17;;
3343;SDS011;1685;53.104;8.228;2023-03-31T08:31:03;20.63;;;14.80;;
3343;SDS011;1685;53.104;8.228;2023-03-31T08:33:30;26.20;;;15.40;;
3343;SDS011;1685;53.104;8.228;2023-03-31T08:36:00;21.70;;;14.83;;
3343;SDS011;1685;53.104;8.228;2023-03-31T08:38:29;26.47;;;16.00;;
3343;SDS011;1685;53.104;8.228;2023-03-31T08:40:58;35.37;;;15.10;;
3343;SDS011;1685;53.104;8.228;2023-03-31T08:43:26;22.53;;;15.50;;
3343;SDS011;1685;53.104;8.228;2023-03-31T08:45:57;24.33;;;14.33;;
3343;SDS011;1685;53.104;8.228;2023-03-31T08:48:24;24.60;;;16.30;;
3343;SDS011;1685;53.104;8.228;2023-03-31T08:50:54;24.90;;;16.37;;
3343;SDS011;1685;53.104;8.228;2023-03-31T08:53:27;33.90;;;17.47;;
3343;SDS011;1685;53.104;8.228;2023-03-31T08:55:58;26.00;;;18.53;;
3343;SDS011;1685;53.104;8.228;2023-03-31T08:58:31;24.50;;;18.73;;
3343;SDS011;1685;53.104;8.228;2023-03-31T09:01:05;24.13;;;17.20;;
3343;SDS011;1685;53.104;8.228;2023-03-31T09:03:42;25.73;;;16.60;;
3343;SDS011;1685;53.104;8.228;2023-03-31T09:06:17;25.50;;;17.27;;
3343;SDS011;1685;53.104;8.228;2023-03-31T09:08:49;25.33;;;15.30;;
3343;SDS011;1685;53.104;8.228;2023-03-31T09:11:21;24.00;;;14.90;;
3343;SDS011;1685;53.104;8.228;2023-03-31T09:14:00;20.20;;;15.83;;
3343;SDS011;1685;53.104;8.228;2023-03-31T09:16:41;21.70;;;15.00;;
3343;SDS011;1685;53.104;8.228;2023-03-31T09:19:14;19.60;;;14.10;;
3343;SDS011;1685;53.104;8.228;2023-03-31T09:21:45;20.43;;;13.60;;
3343;SDS011;1685;53.104;8.228;2023-03-31T09:24:18;25.83;;;14.60;;
3343;SDS011;1685;53.104;8.228;2023-03-31T09:26:49;19.70;;;12.50;;
3343;SDS011;1685;53.104;8.228;2023-03-31T09:29:20;16.60;;;12.93;;
3343;SDS011;1685;53.104;8.228;2023-03-31T09:31:53;17.77;;;13.30;;
3343;SDS011;1685;53.104;8.228;2023-03-31T09:34:23;19.60;;;12.80;;
3343;SDS011;1685;53.104;8.228;2023-03-31T09:36:52;17.87;;;13.07;;
3343;SDS011;1685;53.104;8.228;2023-03-31T09:39:20;18.17;;;12.30;;
3343;SDS011;1685;53.104;8.228;2023-03-31T09:41:47;20.60;;;10.90;;
3343;SDS011;1685;53.104;8.228;2023-03-31T09:44:19;14.20;;;9.60;;
3343;SDS011;1685;53.104;8.228;2023-03-31T09:46:49;19.73;;;12.00;;
3343;SDS011;1685;53.104;8.228;2023-03-31T09:49:18;14.57;;;10.47;;
3343;SDS011;1685;53.104;8.228;2023-03-31T09:51:48;15.83;;;11.30;;
3343;SDS011;1685;53.104;8.228;2023-03-31T09:54:27;15.13;;;11.33;;
3343;SDS011;1685;53.104;8.228;2023-03-31T09:57:01;19.10;;;11.60;;
3343;SDS011;1685;53.104;8.228;2023-03-31T09:59:29;19.13;;;11.73;;
3343;SDS011;1685;53.104;8.228;2023-03-31T10:01:58;14.47;;;11.17;;
3343;SDS011;1685;53.104;8.228;2023-03-31T10:04:27;19.00;;;11.93;;
3343;SDS011;1685;53.104;8.228;2023-03-31T10:06:57;15.87;;;10.40;;
3343;SDS011;1685;53.104;8.228;2023-03-31T10:09:28;14.87;;;11.37;;
3343;SDS011;1685;53.104;8.228;2023-03-31T10:11:57;15.90;;;11.40;;
3343;SDS011;1685;53.104;8.228;2023-03-31T10:14:37;17.53;;;11.30;;
3343;SDS011;1685;53.104;8.228;2023-03-31T10:17:06;15.23;;;10.30;;
3343;SDS011;1685;53.104;8.228;2023-03-31T10:19:34;14.83;;;9.63;;
3343;SDS011;1685;53.104;8.228;2023-03-31T10:22:02;16.60;;;10.57;;
3343;SDS011;1685;53.104;8.228;2023-03-31T10:24:38;16.03;;;10.13;;
3343;SDS011;1685;53.104;8.228;2023-03-31T10:27:12;11.63;;;9.77;;
3343;SDS011;1685;53.104;8.228;2023-03-31T10:29:46;17.33;;;8.93;;
3343;SDS011;1685;53.104;8.228;2023-03-31T10:32:16;13.03;;;9.43;;
3343;SDS011;1685;53.104;8.228;2023-03-31T10:34:47;11.10;;;9.00;;
3343;SDS011;1685;53.104;8.228;2023-03-31T10:37:15;9.60;;;8.17;;
3343;SDS011;1685;53.104;8.228;2023-03-31T10:39:45;13.10;;;8.73;;
3343;SDS011;1685;53.104;8.228;2023-03-31T10:42:17;16.90;;;8.80;;
3343;SDS011;1685;53.104;8.228;2023-03-31T10:44:46;14.67;;;8.07;;
3343;SDS011;1685;53.104;8.228;2023-03-31T10:47:17;14.23;;;7.63;;
3343;SDS011;1685;53.104;8.228;2023-03-31T10:49:47;20.57;;;8.47;;
3343;SDS011;1685;53.104;8.228;2023-03-31T10:52:17;11.10;;;7.70;;
3343;SDS011;1685;53.104;8.228;2023-03-31T10:54:48;9.90;;;6.83;;
3343;SDS011;1685;53.104;8.228;2023-03-31T10:57:16;9.30;;;7.57;;
3343;SDS011;1685;53.104;8.228;2023-03-31T10:59:53;11.70;;;7.50;;
3343;SDS011;1685;53.104;8.228;2023-03-31T11:02:49;14.00;;;7.30;;
3343;SDS011;1685;53.104;8.228;2023-03-31T11:05:27;15.40;;;7.60;;
3343;SDS011;1685;53.104;8.228;2023-03-31T11:08:00;13.40;;;7.13;;
3343;SDS011;1685;53.104;8.228;2023-03-31T11:10:42;8.17;;;6.30;;
3343;SDS011;1685;53.104;8.228;2023-03-31T11:13:24;9.50;;;6.20;;
3343;SDS011;1685;53.104;8.228;2023-03-31T11:15:59;7.53;;;5.80;;
3343;SDS011;1685;53.104;8.228;2023-03-31T11:18:38;8.63;;;6.03;;
3343;SDS011;1685;53.104;8.228;2023-03-31T11:21:16;11.40;;;6.17;;
3343;SDS011;1685;53.104;8.228;2023-03-31T11:23:49;7.20;;;4.30;;
3343;SDS011;1685;53.104;8.228;2023-03-31T11:26:28;5.40;;;4.93;;
3343;SDS011;1685;53.104;8.228;2023-03-31T11:29:10;6.20;;;4.63;;
3343;SDS011;1685;53.104;8.228;2023-03-31T11:31:48;6.50;;;5.40;;
3343;SDS011;1685;53.104;8.228;2023-03-31T11:34:33;10.27;;;5.93;;
3343;SDS011;1685;53.104;8.228;2023-03-31T11:40:15;8.50;;;5.50;;
3343;SDS011;1685;53.104;8.228;2023-03-31T11:42:52;6.20;;;5.60;;
3343;SDS011;1685;53.104;8.228;2023-03-31T11:45:24;7.97;;;5.23;;
3343;SDS011;1685;53.104;8.228;2023-03-31T11:47:54;5.40;;;4.90;;
3343;SDS011;1685;53.104;8.228;2023-03-31T11:50:27;9.63;;;5.43;;
3343;SDS011;1685;53.104;8.228;2023-03-31T11:52:59;10.43;;;5.20;;
3343;SDS011;1685;53.104;8.228;2023-03-31T11:55:27;7.83;;;5.20;;
3343;SDS011;1685;53.104;8.228;2023-03-31T11:57:58;8.93;;;4.80;;
3343;SDS011;1685;53.104;8.228;2023-03-31T12:00:30;7.40;;;5.57;;
3343;SDS011;1685;53.104;8.228;2023-03-31T12:03:01;6.13;;;5.63;;
3343;SDS011;1685;53.104;8.228;2023-03-31T12:05:35;6.83;;;6.20;;
3343;SDS011;1685;53.104;8.228;2023-03-31T12:08:06;6.83;;;5.80;;
3343;SDS011;1685;53.104;8.228;2023-03-31T12:10:38;14.23;;;5.47;;
3343;SDS011;1685;53.104;8.228;2023-03-31T12:13:17;5.90;;;5.30;;
3343;SDS011;1685;53.104;8.228;2023-03-31T12:16:00;5.65;;;5.13;;
3343;SDS011;1685;53.104;8.228;2023-03-31T12:18:31;5.07;;;4.50;;
3343;SDS011;1685;53.104;8.228;2023-03-31T12:21:02;3.77;;;3.57;;
3343;SDS011;1685;53.104;8.228;2023-03-31T12:23:33;4.43;;;3.90;;
3343;SDS011;1685;53.104;8.228;2023-03-31T12:26:05;6.80;;;3.40;;
3343;SDS011;1685;53.104;8.228;2023-03-31T12:28:40;4.27;;;3.97;;
3343;SDS011;1685;53.104;8.228;2023-03-31T12:31:10;8.57;;;3.97;;
3343;SDS011;1685;53.104;8.228;2023-03-31T12:33:42;9.83;;;4.60;;
3343;SDS011;1685;53.104;8.228;2023-03-31T12:36:13;5.73;;;3.63;;
3343;SDS011;1685;53.104;8.228;2023-03-31T12:38:49;8.73;;;3.63;;
3343;SDS011;1685;53.104;8.228;2023-03-31T12:41:30;6.17;;;3.40;;
3343;SDS011;1685;53.104;8.228;2023-03-31T12:44:12;9.10;;;3.23;;
3343;SDS011;1685;53.104;8.228;2023-03-31T12:47:01;8.23;;;3.67;;
3343;SDS011;1685;53.104;8.228;2023-03-31T12:49:43;4.38;;;3.40;;
3343;SDS011;1685;53.104;8.228;2023-03-31T12:52:15;4.63;;;3.70;;
3343;SDS011;1685;53.104;8.228;2023-03-31T12:54:51;4.73;;;3.40;;
3343;SDS011;1685;53.104;8.228;2023-03-31T12:57:33;6.00;;;3.87;;
3343;SDS011;1685;53.104;8.228;2023-03-31T13:02:50;5.13;;;3.67;;
3343;SDS011;1685;53.104;8.228;2023-03-31T13:05:57;6.87;;;2.80;;
3343;SDS011;1685;53.104;8.228;2023-03-31T13:11:14;4.40;;;3.53;;
3343;SDS011;1685;53.104;8.228;2023-03-31T13:13:43;4.93;;;3.73;;
3343;SDS011;1685;53.104;8.228;2023-03-31T13:16:12;3.27;;;3.07;;
3343;SDS011;1685;53.104;8.228;2023-03-31T13:18:49;8.83;;;3.70;;
3343;SDS011;1685;53.104;8.228;2023-03-31T13:21:17;5.97;;;3.43;;
3343;SDS011;1685;53.104;8.228;2023-03-31T13:23:44;3.17;;;2.97;;
3343;SDS011;1685;53.104;8.228;2023-03-31T13:29:17;3.67;;;3.47;;
3343;SDS011;1685;53.104;8.228;2023-03-31T13:32:06;8.33;;;3.60;;
3343;SDS011;1685;53.104;8.228;2023-03-31T13:34:45;7.17;;;3.80;;
3343;SDS011;1685;53.104;8.228;2023-03-31T13:37:15;5.60;;;4.10;;
3343;SDS011;1685;53.104;8.228;2023-03-31T13:43:10;4.47;;;3.60;;
3343;SDS011;1685;53.104;8.228;2023-03-31T13:46:06;4.00;;;2.83;;
3343;SDS011;1685;53.104;8.228;2023-03-31T13:48:50;12.00;;;3.70;;
3343;SDS011;1685;53.104;8.228;2023-03-31T13:51:28;4.03;;;3.07;;
3343;SDS011;1685;53.104;8.228;2023-03-31T13:54:07;7.80;;;3.57;;
3343;SDS011;1685;53.104;8.228;2023-03-31T13:59:59;9.23;;;3.47;;
3343;SDS011;1685;53.104;8.228;2023-03-31T14:02:41;9.23;;;3.40;;
3343;SDS011;1685;53.104;8.228;2023-03-31T14:05:28;4.53;;;2.93;;
3343;SDS011;1685;53.104;8.228;2023-03-31T14:07:57;10.90;;;3.10;;
3343;SDS011;1685;53.104;8.228;2023-03-31T14:10:25;6.50;;;2.30;;
3343;SDS011;1685;53.104;8.228;2023-03-31T14:13:04;8.17;;;3.20;;
3343;SDS011;1685;53.104;8.228;2023-03-31T14:15:32;4.70;;;2.97;;
3343;SDS011;1685;53.104;8.228;2023-03-31T14:18:00;8.50;;;3.20;;
3343;SDS011;1685;53.104;8.228;2023-03-31T14:20:34;3.63;;;2.83;;
3343;SDS011;1685;53.104;8.228;2023-03-31T14:23:19;6.87;;;3.97;;
3343;SDS011;1685;53.104;8.228;2023-03-31T14:25:50;7.73;;;3.40;;
3343;SDS011;1685;53.104;8.228;2023-03-31T14:28:35;5.67;;;3.07;;
3343;SDS011;1685;53.104;8.228;2023-03-31T14:31:10;3.50;;;3.20;;
3343;SDS011;1685;53.104;8.228;2023-03-31T14:33:47;4.33;;;3.80;;
3343;SDS011;1685;53.104;8.228;2023-03-31T14:36:27;8.93;;;3.77;;
3343;SDS011;1685;53.104;8.228;2023-03-31T14:39:02;7.70;;;3.17;;
3343;SDS011;1685;53.104;8.228;2023-03-31T14:41:30;6.80;;;3.17;;
3343;SDS011;1685;53.104;8.228;2023-03-31T14:43:59;5.67;;;3.47;;
3343;SDS011;1685;53.104;8.228;2023-03-31T14:46:28;6.53;;;3.20;;
3343;SDS011;1685;53.104;8.228;2023-03-31T14:48:57;5.23;;;3.00;;
3343;SDS011;1685;53.104;8.228;2023-03-31T14:51:27;5.83;;;3.50;;
3343;SDS011;1685;53.104;8.228;2023-03-31T14:53:55;5.07;;;3.67;;
3343;SDS011;1685;53.104;8.228;2023-03-31T14:56:24;9.32;;;4.15;;
3343;SDS011;1685;53.104;8.228;2023-03-31T14:58:57;8.87;;;3.20;;
3343;SDS011;1685;53.104;8.228;2023-03-31T15:01:27;5.20;;;3.00;;
3343;SDS011;1685;53.104;8.228;2023-03-31T15:03:58;4.60;;;3.10;;
3343;SDS011;1685;53.104;8.228;2023-03-31T15:06:28;5.43;;;3.03;;
3343;SDS011;1685;53.104;8.228;2023-03-31T15:08:59;7.70;;;3.20;;
3343;SDS011;1685;53.104;8.228;2023-03-31T15:11:28;6.80;;;3.53;;
3343;SDS011;1685;53.104;8.228;2023-03-31T15:13:56;5.20;;;3.50;;
3343;SDS011;1685;53.104;8.228;2023-03-31T15:16:29;8.63;;;3.67;;
3343;SDS011;1685;53.104;8.228;2023-03-31T15:18:58;8.00;;;3.50;;
3343;SDS011;1685;53.104;8.228;2023-03-31T15:21:26;8.90;;;3.80;;
3343;SDS011;1685;53.104;8.228;2023-03-31T15:23:55;7.07;;;3.70;;
3343;SDS011;1685;53.104;8.228;2023-03-31T15:26:23;7.17;;;3.63;;
3343;SDS011;1685;53.104;8.228;2023-03-31T15:28:53;9.23;;;4.20;;
3343;SDS011;1685;53.104;8.228;2023-03-31T15:31:23;9.00;;;4.00;;
3343;SDS011;1685;53.104;8.228;2023-03-31T15:33:51;17.17;;;5.63;;
3343;SDS011;1685;53.104;8.228;2023-03-31T15:36:18;13.33;;;5.10;;
3343;SDS011;1685;53.104;8.228;2023-03-31T15:38:46;9.07;;;5.40;;
3343;SDS011;1685;53.104;8.228;2023-03-31T15:41:23;8.77;;;4.40;;
3343;SDS011;1685;53.104;8.228;2023-03-31T15:44:02;6.87;;;4.10;;
3343;SDS011;1685;53.104;8.228;2023-03-31T15:46:47;9.93;;;4.63;;
3343;SDS011;1685;53.104;8.228;2023-03-31T15:49:17;7.93;;;4.40;;
3343;SDS011;1685;53.104;8.228;2023-03-31T15:51:45;6.70;;;4.20;;
3343;SDS011;1685;53.104;8.228;2023-03-31T15:54:26;6.97;;;4.27;;